DENVER INTL

KDEN (DEN)
Denver, Colorado
Towered

Vatsim Metar:
KDEN 111053Z 23005KT 10SM FEW160 M03/M09 A3015 RMK AO2 SLP223 T10281089 $

No ATC Online

Traffic

Inbound:
Ident
Type
Name
ETA
Phase
DLH4802
H/A359/L
Luke Bettis KBMI
15:48 Z
Descent

Outbound:
None

SIDs

STARS

Alternate Minimums

Hot Spots